Time;durP1;ratioP1;P1;durP2;ratioP2;P2;SDS_P1;SDS_P2;PMS_P1;PMS_P2;Temp;Humidity;BMP_temperature;BMP_pressure;BME280_temperature;BME280_humidity;BME280_pressure;Samples;Min_cycle;Max_cycle;Signal;HPM_P1;HPM_P2
2022/11/27 00:00:47;;;;;;;;;;;;;;;14.04;74.31;102106.09;1262211;23;791;-80
2022/11/27 00:01:38;;;;;;;;;;;;;;;14.05;74.50;102105.16;1261180;23;665;-80
2022/11/27 00:02:28;;;;;;;;;;;;;;;14.07;74.63;102105.94;1261284;23;625;-80
2022/11/27 00:03:19;;;;;;;;;;;;;;;14.05;74.26;102099.78;1261175;23;664;-80
2022/11/27 00:04:09;;;;;;;;;;;;;;;14.05;74.60;102099.78;1261330;23;622;-80
2022/11/27 00:04:59;;;;;;;;;;;;;;;14.06;74.08;102098.84;1261301;23;641;-80
2022/11/27 00:05:50;;;;;;;;;;;;;;;14.04;74.39;102100.75;1261282;23;665;-80
2022/11/27 00:06:40;;;;;;;;;;;;;;;14.03;74.88;102088.28;1261405;23;747;-80
2022/11/27 00:07:31;;;;;;;;;;;;;;;14.05;74.53;102097.13;1261196;23;610;-77
2022/11/27 00:08:21;;;;;;;;;;;;;;;14.04;74.24;102094.53;1261432;23;657;-80
2022/11/27 00:09:14;;;;;;;;;;;;;;;14.04;74.17;102081.13;1260787;23;658;-80
2022/11/27 00:10:04;;;;;;;;;;;;;;;14.05;74.18;102085.53;1261301;23;700;-79
2022/11/27 00:10:55;;;;;;;;;;;;;;;14.04;74.52;102084.66;1261233;23;606;-78
2022/11/27 00:11:45;;;;;;;;;;;;;;;14.02;74.47;102083.03;1261259;23;630;-77
2022/11/27 00:12:36;;;;;;;;;;;;;;;14.01;75.06;102087.53;1261281;23;1940;-77
2022/11/27 00:13:26;;;;;;;;;;;;;;;14.03;74.44;102074.91;1261345;23;626;-77
2022/11/27 00:14:17;;;;;;;;;;;;;;;14.03;73.98;102085.63;1261255;23;626;-77
2022/11/27 00:15:08;;;;;;;;;;;;;;;14.03;74.35;102077.56;1261333;23;622;-77
2022/11/27 00:15:58;;;;;;;;;;;;;;;14.02;74.20;102075.84;1262014;23;656;-78
2022/11/27 00:16:49;;;;;;;;;;;;;;;14.02;74.80;102070.50;1256877;23;645;-77
2022/11/27 00:17:39;;;;;;;;;;;;;;;14.03;74.60;102076.72;1249053;23;645;-77
2022/11/27 00:18:30;;;;;;;;;;;;;;;14.01;74.28;102071.44;1253991;23;674;-74
2022/11/27 00:19:20;;;;;;;;;;;;;;;14.01;74.25;102071.44;1259656;23;673;-78
2022/11/27 00:20:11;;;;;;;;;;;;;;;14.00;74.66;102072.38;1261196;23;649;-78
2022/11/27 00:21:01;;;;;;;;;;;;;;;14.01;74.38;102068.75;1261296;23;652;-75
2022/11/27 00:21:51;;;;;;;;;;;;;;;13.99;74.27;102070.66;1261201;23;844;-78
2022/11/27 00:22:42;;;;;;;;;;;;;;;13.99;74.85;102065.31;1261226;23;737;-78
2022/11/27 00:23:32;;;;;;;;;;;;;;;14.00;74.62;102064.34;1261473;23;598;-78
2022/11/27 00:24:23;;;;;;;;;;;;;;;14.01;74.23;102067.91;1261151;23;634;-78
2022/11/27 00:25:13;;;;;;;;;;;;;;;14.01;74.18;102062.53;1261322;23;654;-78
2022/11/27 00:26:03;;;;;;;;;;;;;;;14.01;74.84;102062.53;1261266;23;586;-78
2022/11/27 00:26:54;;;;;;;;;;;;;;;14.01;74.78;102052.69;1256555;23;680;-79
2022/11/27 00:27:44;;;;;;;;;;;;;;;14.01;74.95;102051.81;1254964;23;744;-79
2022/11/27 00:28:35;;;;;;;;;;;;;;;14.00;74.78;102048.28;1261012;23;618;-78
2022/11/27 00:29:28;;;;;;;;;;;;;;;14.01;74.29;102049.13;1256475;23;715;-80
2022/11/27 00:30:18;;;;;;;;;;;;;;;14.00;74.18;102056.31;1254974;23;658;-80
2022/11/27 00:31:08;;;;;;;;;;;;;;;13.99;74.25;102051.91;1261324;23;726;-80
2022/11/27 00:31:59;;;;;;;;;;;;;;;13.99;74.20;102046.53;1261279;23;618;-80
2022/11/27 00:32:49;;;;;;;;;;;;;;;13.98;74.62;102054.66;1261129;23;1876;-81
2022/11/27 00:33:40;;;;;;;;;;;;;;;13.96;74.14;102052.13;1261279;23;637;-80
2022/11/27 00:34:30;;;;;;;;;;;;;;;13.95;74.62;102057.56;1262084;23;626;-78
2022/11/27 00:35:21;;;;;;;;;;;;;;;13.95;74.59;102060.25;1262272;23;645;-78
2022/11/27 00:36:11;;;;;;;;;;;;;;;13.96;74.22;102052.13;1261260;23;673;-80
2022/11/27 00:37:01;;;;;;;;;;;;;;;13.85;74.46;102063.44;1261049;23;680;-77
2022/11/27 00:37:52;;;;;;;;;;;;;;;13.88;74.86;102063.28;1261239;23;662;-79
2022/11/27 00:38:42;;;;;;;;;;;;;;;13.91;74.36;102059.56;1256381;23;650;-77
2022/11/27 00:39:33;;;;;;;;;;;;;;;13.92;74.41;102061.28;1255029;23;657;-80
2022/11/27 00:40:23;;;;;;;;;;;;;;;13.92;74.23;102053.25;1261154;23;657;-80
2022/11/27 00:41:14;;;;;;;;;;;;;;;13.94;74.20;102055.84;1261260;23;629;-79
2022/11/27 00:42:04;;;;;;;;;;;;;;;13.90;74.51;102055.16;1261222;23;700;-79
2022/11/27 00:42:57;;;;;;;;;;;;;;;13.89;74.79;102058.78;1261241;23;657;-79
2022/11/27 00:43:48;;;;;;;;;;;;;;;13.89;74.33;102056.97;1261341;23;658;-79
2022/11/27 00:44:38;;;;;;;;;;;;;;;13.89;74.40;102062.31;1261293;23;677;-78
2022/11/27 00:45:29;;;;;;;;;;;;;;;13.90;74.82;102055.16;1262122;23;618;-78
2022/11/27 00:46:19;;;;;;;;;;;;;;;13.92;74.70;102058.59;1256470;23;676;-78
2022/11/27 00:47:09;;;;;;;;;;;;;;;13.92;74.70;102055.06;1255628;23;1118;-78
2022/11/27 00:48:00;;;;;;;;;;;;;;;13.92;74.97;102053.25;1261226;23;642;-78
2022/11/27 00:48:51;;;;;;;;;;;;;;;13.92;74.19;102058.59;1261377;23;630;-78
2022/11/27 00:49:41;;;;;;;;;;;;;;;13.93;74.17;102054.09;1261320;23;618;-77
2022/11/27 00:50:32;;;;;;;;;;;;;;;13.93;74.22;102054.97;1262233;23;696;-78
2022/11/27 00:51:22;;;;;;;;;;;;;;;13.93;74.19;102048.75;1261937;23;649;-78
2022/11/27 00:52:12;;;;;;;;;;;;;;;13.91;74.42;102043.47;1261276;23;653;-74
2022/11/27 00:53:03;;;;;;;;;;;;;;;13.92;74.84;102047.03;1262036;23;641;-78
2022/11/27 00:53:53;;;;;;;;;;;;;;;13.91;74.28;102043.47;1261290;23;622;-77
2022/11/27 00:54:44;;;;;;;;;;;;;;;13.93;74.23;102044.25;1261192;23;622;-77
2022/11/27 00:55:34;;;;;;;;;;;;;;;13.92;74.36;102047.88;1261188;23;649;-78
2022/11/27 00:56:24;;;;;;;;;;;;;;;13.95;74.57;102046.84;1261260;23;646;-75
2022/11/27 00:57:15;;;;;;;;;;;;;;;13.92;74.71;102039.84;1262040;23;677;-77
2022/11/27 00:58:05;;;;;;;;;;;;;;;13.93;74.11;102041.56;1261388;23;669;-75
2022/11/27 00:58:56;;;;;;;;;;;;;;;13.93;74.84;102044.25;1261144;23;661;-77
2022/11/27 00:59:46;;;;;;;;;;;;;;;13.92;74.39;102038.97;1261228;23;681;-77
2022/11/27 01:00:37;;;;;;;;;;;;;;;13.93;74.98;102035.34;1262369;23;801;-74
2022/11/27 01:01:27;;;;;;;;;;;;;;;13.92;74.56;102037.16;1261706;23;641;-74
2022/11/27 01:02:17;;;;;;;;;;;;;;;13.91;74.80;102038.13;1262491;23;609;-77
2022/11/27 01:03:08;;;;;;;;;;;;;;;13.92;74.30;102037.16;1262525;23;601;-77
2022/11/27 01:03:58;;;;;;;;;;;;;;;13.93;74.41;102028.16;1256682;23;621;-77
2022/11/27 01:04:49;;;;;;;;;;;;;;;13.94;74.81;102040.63;1255368;23;634;-77
2022/11/27 01:05:39;;;;;;;;;;;;;;;13.96;74.42;102045.88;1261365;23;622;-77
2022/11/27 01:06:30;;;;;;;;;;;;;;;13.94;74.69;102040.63;1261446;23;665;-77
2022/11/27 01:07:20;;;;;;;;;;;;;;;13.95;74.39;102031.63;1261084;23;688;-77
2022/11/27 01:08:10;;;;;;;;;;;;;;;13.92;74.26;102037.16;1261496;23;614;-76
2022/11/27 01:09:01;;;;;;;;;;;;;;;13.89;74.06;102032.84;1261608;23;658;-78
2022/11/27 01:09:51;;;;;;;;;;;;;;;13.89;74.75;102035.53;1262377;23;625;-77
2022/11/27 01:10:42;;;;;;;;;;;;;;;13.88;74.30;102031.13;1262539;23;720;-77
2022/11/27 01:11:32;;;;;;;;;;;;;;;13.88;74.67;102019.53;1261536;23;558;-77
2022/11/27 01:12:23;;;;;;;;;;;;;;;13.90;74.46;102017.63;1261483;23;614;-77
2022/11/27 01:13:13;;;;;;;;;;;;;;;13.90;74.26;102023.00;1261774;23;631;-77
2022/11/27 01:14:03;;;;;;;;;;;;;;;13.89;74.43;102022.13;1261580;23;661;-77
2022/11/27 01:14:54;;;;;;;;;;;;;;;13.88;74.58;102016.84;1261550;23;650;-77
2022/11/27 01:15:44;;;;;;;;;;;;;;;13.89;74.86;102021.25;1261619;23;669;-77
2022/11/27 01:16:36;;;;;;;;;;;;;;;13.89;75.20;102013.22;1256782;23;668;-80
2022/11/27 01:17:27;;;;;;;;;;;;;;;13.85;74.70;102015.22;1255378;23;599;-79
2022/11/27 01:18:17;;;;;;;;;;;;;;;13.87;74.92;102007.09;1261569;23;654;-79
2022/11/27 01:19:08;;;;;;;;;;;;;;;13.87;75.04;102023.16;1261658;23;669;-79
2022/11/27 01:19:58;;;;;;;;;;;;;;;13.83;74.20;102017.13;1261715;23;641;-79
2022/11/27 01:20:49;;;;;;;;;;;;;;;13.81;74.90;102005.63;1262519;23;734;-78
2022/11/27 01:21:39;;;;;;;;;;;;;;;13.85;74.56;102006.31;1261044;23;622;-78
2022/11/27 01:22:29;;;;;;;;;;;;;;;13.87;74.65;102007.09;1261562;23;633;-79
2022/11/27 01:23:20;;;;;;;;;;;;;;;13.85;74.57;101998.28;1261662;23;660;-76
2022/11/27 01:24:10;;;;;;;;;;;;;;;13.86;74.76;102010.72;1261643;23;697;-76
2022/11/27 01:25:01;;;;;;;;;;;;;;;13.87;74.46;102007.09;1261421;23;657;-79
2022/11/27 01:25:54;;;;;;;;;;;;;;;13.86;75.04;102010.72;1261611;23;699;-79
2022/11/27 01:26:44;;;;;;;;;;;;;;;13.87;74.89;102004.41;1256690;23;625;-80
2022/11/27 01:27:35;;;;;;;;;;;;;;;13.88;74.83;102003.47;1255327;23;697;-79
2022/11/27 01:28:25;;;;;;;;;;;;;;;13.89;74.85;101998.00;1261289;23;642;-78
2022/11/27 01:29:16;;;;;;;;;;;;;;;13.89;74.25;101994.47;1262463;23;664;-78
2022/11/27 01:30:06;;;;;;;;;;;;;;;13.90;74.40;101999.75;1261546;23;749;-76
2022/11/27 01:30:56;;;;;;;;;;;;;;;13.89;74.74;101992.66;1261483;23;641;-78
2022/11/27 01:31:47;;;;;;;;;;;;;;;13.89;74.88;101995.34;1261688;23;610;-76
2022/11/27 01:32:37;;;;;;;;;;;;;;;13.87;74.77;101991.88;1261530;23;1922;-78
2022/11/27 01:33:28;;;;;;;;;;;;;;;13.87;74.40;101991.00;1261490;23;641;-78
2022/11/27 01:34:18;;;;;;;;;;;;;;;13.87;74.25;101997.25;1261474;23;665;-79
2022/11/27 01:35:09;;;;;;;;;;;;;;;13.89;74.43;101994.47;1261588;23;637;-78
2022/11/27 01:35:59;;;;;;;;;;;;;;;13.88;74.44;101976.66;1260982;23;665;-78
2022/11/27 01:36:49;;;;;;;;;;;;;;;13.88;74.90;101984.72;1262544;23;613;-78
2022/11/27 01:37:40;;;;;;;;;;;;;;;13.89;74.94;101983.75;1261548;23;602;-78
2022/11/27 01:38:30;;;;;;;;;;;;;;;13.89;74.79;101986.44;1261452;23;660;-78
2022/11/27 01:39:23;;;;;;;;;;;;;;;13.85;74.00;101971.47;1261399;23;630;-78
2022/11/27 01:40:13;;;;;;;;;;;;;;;13.82;74.64;101974.34;1261503;23;633;-78
2022/11/27 01:41:04;;;;;;;;;;;;;;;13.84;74.56;101975.13;1261495;23;642;-79
2022/11/27 01:41:54;;;;;;;;;;;;;;;13.85;74.56;101971.47;1261498;23;712;-79
2022/11/27 01:42:45;;;;;;;;;;;;;;;13.84;74.50;101967.06;1257103;23;723;-79
2022/11/27 01:43:35;;;;;;;;;;;;;;;13.83;74.97;101968.03;1255156;23;633;-79
2022/11/27 01:44:26;;;;;;;;;;;;;;;13.84;74.99;101964.41;1261389;23;618;-79
2022/11/27 01:45:16;;;;;;;;;;;;;;;13.83;74.53;101958.19;1261535;23;649;-80
2022/11/27 01:46:06;;;;;;;;;;;;;;;13.84;74.56;101964.41;1261596;23;618;-80
2022/11/27 01:46:57;;;;;;;;;;;;;;;13.84;74.58;101975.97;1261328;23;1091;-76
2022/11/27 01:47:47;;;;;;;;;;;;;;;13.84;75.03;101964.41;1261573;23;633;-78
2022/11/27 01:48:38;;;;;;;;;;;;;;;13.84;74.96;101959.03;1262340;23;665;-78
2022/11/27 01:49:28;;;;;;;;;;;;;;;13.83;75.00;101957.31;1261544;23;656;-78
2022/11/27 01:50:19;;;;;;;;;;;;;;;13.83;74.52;101946.59;1261588;23;614;-78
2022/11/27 01:51:09;;;;;;;;;;;;;;;13.85;74.57;101947.38;1261527;23;665;-79
2022/11/27 01:51:59;;;;;;;;;;;;;;;13.85;74.78;101942.00;1256705;23;641;-79
2022/11/27 01:52:50;;;;;;;;;;;;;;;13.85;74.86;101945.56;1255130;23;1945;-79
2022/11/27 01:53:40;;;;;;;;;;;;;;;13.84;74.78;101943.81;1261359;23;661;-79
2022/11/27 01:54:31;;;;;;;;;;;;;;;13.84;74.76;101942.97;1261557;23;609;-80
2022/11/27 01:55:21;;;;;;;;;;;;;;;13.83;74.87;101936.75;1256827;23;743;-79
2022/11/27 01:56:12;;;;;;;;;;;;;;;13.84;74.51;101929.56;1255182;23;638;-80
2022/11/27 01:57:02;;;;;;;;;;;;;;;13.84;74.62;101930.44;1261297;23;641;-79
2022/11/27 01:57:53;;;;;;;;;;;;;;;13.86;74.92;101936.56;1261483;23;665;-79
2022/11/27 01:58:43;;;;;;;;;;;;;;;13.87;75.05;101940.09;1262421;23;692;-80
2022/11/27 01:59:33;;;;;;;;;;;;;;;13.85;74.28;101939.34;1261488;23;653;-80
2022/11/27 02:00:24;;;;;;;;;;;;;;;13.85;74.45;101933.97;1261442;23;630;-81
2022/11/27 02:01:14;;;;;;;;;;;;;;;13.83;74.14;101935.88;1261556;23;634;-81
2022/11/27 02:02:05;;;;;;;;;;;;;;;13.81;74.57;101944.00;1262262;23;626;-82
2022/11/27 02:02:55;;;;;;;;;;;;;;;13.82;75.00;101936.84;1261608;23;720;-81
2022/11/27 02:03:46;;;;;;;;;;;;;;;13.80;74.41;101946.78;1261403;23;649;-80
2022/11/27 02:04:36;;;;;;;;;;;;;;;13.79;74.78;101950.44;1261467;23;666;-79
2022/11/27 02:05:27;;;;;;;;;;;;;;;13.78;74.66;101943.38;1260899;23;645;-79
2022/11/27 02:06:17;;;;;;;;;;;;;;;13.79;74.49;101942.41;1261505;23;625;-78
2022/11/27 02:07:08;;;;;;;;;;;;;;;13.78;74.54;101940.69;1261605;23;624;-78
2022/11/27 02:07:58;;;;;;;;;;;;;;;13.80;74.52;101944.09;1261505;23;640;-78
2022/11/27 02:08:49;;;;;;;;;;;;;;;13.80;74.74;101936.06;1261504;23;649;-78
2022/11/27 02:09:39;;;;;;;;;;;;;;;13.81;74.55;101929.75;1262327;23;665;-78
2022/11/27 02:10:30;;;;;;;;;;;;;;;13.81;74.90;101919.91;1261495;23;650;-79
2022/11/27 02:11:20;;;;;;;;;;;;;;;13.82;74.82;101928.78;1261383;23;673;-78
2022/11/27 02:12:10;;;;;;;;;;;;;;;13.82;74.40;101918.94;1261364;23;694;-78
2022/11/27 02:13:01;;;;;;;;;;;;;;;13.78;74.92;101917.44;1261484;23;708;-78
2022/11/27 02:13:51;;;;;;;;;;;;;;;13.79;74.48;101919.13;1261448;23;606;-78
2022/11/27 02:14:42;;;;;;;;;;;;;;;13.73;73.60;101916.84;1261448;23;700;-79
2022/11/27 02:15:32;;;;;;;;;;;;;;;13.72;75.18;101911.56;1261508;23;606;-80
2022/11/27 02:16:23;;;;;;;;;;;;;;;13.73;74.76;101918.66;1261492;23;598;-79
2022/11/27 02:17:13;;;;;;;;;;;;;;;13.71;74.08;101908.03;1261479;23;622;-80
2022/11/27 02:18:03;;;;;;;;;;;;;;;13.71;74.56;101909.84;1261494;23;681;-79
2022/11/27 02:18:54;;;;;;;;;;;;;;;13.73;74.82;101905.25;1261338;23;669;-79
2022/11/27 02:19:44;;;;;;;;;;;;;;;13.75;74.59;101916.75;1260904;23;712;-78
2022/11/27 02:20:35;;;;;;;;;;;;;;;13.76;74.97;101913.13;1261489;23;594;-78
2022/11/27 02:21:25;;;;;;;;;;;;;;;13.76;74.97;101907.75;1261426;23;618;-78
2022/11/27 02:22:15;;;;;;;;;;;;;;;13.77;74.49;101913.03;1261536;23;657;-78
2022/11/27 02:23:06;;;;;;;;;;;;;;;13.76;75.15;101907.75;1261396;23;633;-79
2022/11/27 02:23:56;;;;;;;;;;;;;;;13.77;74.43;101909.50;1261519;23;663;-79
2022/11/27 02:24:47;;;;;;;;;;;;;;;13.76;74.73;101913.13;1261473;23;637;-78
2022/11/27 02:25:37;;;;;;;;;;;;;;;13.74;74.59;101912.34;1261506;23;634;-78
2022/11/27 02:26:28;;;;;;;;;;;;;;;13.74;74.13;101912.34;1261387;23;613;-79
2022/11/27 02:27:18;;;;;;;;;;;;;;;13.74;74.13;101915.88;1261364;23;658;-78
2022/11/27 02:28:08;;;;;;;;;;;;;;;13.71;74.89;101913.38;1261433;23;696;-78
2022/11/27 02:28:59;;;;;;;;;;;;;;;13.72;74.58;101895.50;1261409;23;633;-78
2022/11/27 02:29:49;;;;;;;;;;;;;;;13.75;74.53;101914.06;1261468;23;642;-78
2022/11/27 02:30:40;;;;;;;;;;;;;;;13.73;74.70;101916.84;1261381;23;622;-78
2022/11/27 02:31:30;;;;;;;;;;;;;;;13.74;74.29;101909.66;1261438;23;645;-78
2022/11/27 02:32:21;;;;;;;;;;;;;;;13.74;74.49;101921.25;1262365;23;661;-78
2022/11/27 02:33:11;;;;;;;;;;;;;;;13.75;74.69;101927.47;1262316;23;630;-78
2022/11/27 02:34:01;;;;;;;;;;;;;;;13.74;74.08;101920.38;1260911;23;622;-79
2022/11/27 02:34:52;;;;;;;;;;;;;;;13.71;74.78;101929.47;1262347;23;641;-78
2022/11/27 02:35:42;;;;;;;;;;;;;;;13.72;74.30;101927.66;1261410;23;645;-78
2022/11/27 02:36:33;;;;;;;;;;;;;;;13.72;74.56;101928.50;1261403;23;618;-77
2022/11/27 02:37:23;;;;;;;;;;;;;;;13.72;74.37;101933.00;1261311;23;708;-77
2022/11/27 02:38:14;;;;;;;;;;;;;;;13.70;74.69;101933.09;1261415;23;688;-78
2022/11/27 02:39:04;;;;;;;;;;;;;;;13.71;74.88;101925.94;1261281;23;614;-77
2022/11/27 02:39:55;;;;;;;;;;;;;;;13.72;74.30;101931.19;1261435;23;645;-78
2022/11/27 02:40:45;;;;;;;;;;;;;;;13.70;74.47;101938.47;1261550;23;641;-78
2022/11/27 02:41:36;;;;;;;;;;;;;;;13.70;74.72;101924.19;1262274;23;622;-79
2022/11/27 02:42:26;;;;;;;;;;;;;;;13.72;74.62;101933.00;1261566;23;658;-79
2022/11/27 02:43:17;;;;;;;;;;;;;;;13.74;74.98;101928.41;1261392;23;649;-79
2022/11/27 02:44:08;;;;;;;;;;;;;;;13.73;74.68;101927.56;1261449;23;677;-78
2022/11/27 02:44:58;;;;;;;;;;;;;;;13.73;74.35;101924.88;1261375;23;666;-78
2022/11/27 02:45:49;;;;;;;;;;;;;;;13.70;74.70;101922.38;1261326;23;775;-78
2022/11/27 02:46:39;;;;;;;;;;;;;;;13.71;74.56;101923.25;1261402;23;673;-79
2022/11/27 02:47:29;;;;;;;;;;;;;;;13.73;74.78;101915.97;1261481;23;637;-78
2022/11/27 02:48:20;;;;;;;;;;;;;;;13.73;74.93;101922.19;1261356;23;637;-78
2022/11/27 02:49:11;;;;;;;;;;;;;;;13.74;74.48;101923.06;1261478;23;622;-79
2022/11/27 02:50:01;;;;;;;;;;;;;;;13.74;74.79;101915.88;1261307;23;645;-78
2022/11/27 02:50:51;;;;;;;;;;;;;;;13.74;74.72;101921.25;1261261;23;553;-78
2022/11/27 02:51:42;;;;;;;;;;;;;;;13.72;74.76;101917.78;1261408;23;622;-79
2022/11/27 02:52:32;;;;;;;;;;;;;;;13.72;74.49;101923.16;1261244;23;1909;-78
2022/11/27 02:53:23;;;;;;;;;;;;;;;13.73;74.46;101924.03;1261465;23;661;-78
2022/11/27 02:54:13;;;;;;;;;;;;;;;13.71;74.70;101917.88;1262140;23;677;-78
2022/11/27 02:55:04;;;;;;;;;;;;;;;13.72;74.14;101916.94;1261406;23;606;-78
2022/11/27 02:55:54;;;;;;;;;;;;;;;13.72;75.03;101916.94;1261382;23;622;-78
2022/11/27 02:56:47;;;;;;;;;;;;;;;13.71;74.83;101923.25;1261497;23;626;-78
2022/11/27 02:57:37;;;;;;;;;;;;;;;13.72;74.44;101917.78;1261388;23;621;-79
2022/11/27 02:58:27;;;;;;;;;;;;;;;13.68;74.53;101916.25;1261338;23;634;-78
2022/11/27 02:59:18;;;;;;;;;;;;;;;13.69;74.81;101919.78;1261437;23;669;-79
2022/11/27 03:00:08;;;;;;;;;;;;;;;13.69;74.50;101911.75;1262177;23;617;-78
2022/11/27 03:00:59;;;;;;;;;;;;;;;13.67;74.89;101914.53;1261439;23;720;-78
2022/11/27 03:01:49;;;;;;;;;;;;;;;13.68;74.74;101915.38;1262178;23;602;-78
2022/11/27 03:02:40;;;;;;;;;;;;;;;13.67;74.44;101917.22;1261236;23;637;-78
2022/11/27 03:03:31;;;;;;;;;;;;;;;13.67;74.35;101922.56;1261433;23;594;-78
2022/11/27 03:04:21;;;;;;;;;;;;;;;13.68;74.48;101912.72;1261411;23;796;-78
2022/11/27 03:05:11;;;;;;;;;;;;;;;13.68;74.51;101915.38;1261425;23;719;-78
2022/11/27 03:06:02;;;;;;;;;;;;;;;13.66;74.57;101906.59;1261388;23;630;-78
2022/11/27 03:06:52;;;;;;;;;;;;;;;13.66;74.78;101909.25;1261347;23;621;-78
2022/11/27 03:07:43;;;;;;;;;;;;;;;13.67;74.33;101905.63;1261424;23;739;-78
2022/11/27 03:08:33;;;;;;;;;;;;;;;13.66;74.28;101902.09;1262239;23;613;-78
2022/11/27 03:09:24;;;;;;;;;;;;;;;13.67;74.68;101913.66;1261323;23;630;-78
2022/11/27 03:10:16;;;;;;;;;;;;;;;13.65;74.21;101903.03;1261360;23;729;-78
2022/11/27 03:11:06;;;;;;;;;;;;;;;13.65;74.89;101903.03;1261378;23;646;-77
2022/11/27 03:11:57;;;;;;;;;;;;;;;13.65;74.49;101908.41;1261354;23;652;-75
2022/11/27 03:12:47;;;;;;;;;;;;;;;13.67;74.92;101914.53;1262112;23;1892;-75
2022/11/27 03:13:38;;;;;;;;;;;;;;;13.66;74.35;101902.09;1261267;23;684;-76
2022/11/27 03:14:28;;;;;;;;;;;;;;;13.66;74.63;101911.94;1261475;23;665;-76
2022/11/27 03:15:18;;;;;;;;;;;;;;;13.65;74.38;101915.56;1261240;23;692;-76
2022/11/27 03:16:09;;;;;;;;;;;;;;;13.66;74.48;101909.25;1261255;23;637;-77
2022/11/27 03:16:59;;;;;;;;;;;;;;;13.65;74.86;101911.06;1256634;23;668;-78
2022/11/27 03:17:50;;;;;;;;;;;;;;;13.67;74.73;101919.03;1254542;23;622;-77
2022/11/27 03:18:40;;;;;;;;;;;;;;;13.66;74.19;101906.59;1261328;23;681;-78
2022/11/27 03:19:31;;;;;;;;;;;;;;;13.67;74.63;101905.63;1262295;23;637;-77
2022/11/27 03:20:21;;;;;;;;;;;;;;;13.65;74.92;101910.22;1261244;23;617;-77
2022/11/27 03:21:11;;;;;;;;;;;;;;;13.66;75.00;101909.25;1261326;23;673;-77
2022/11/27 03:22:02;;;;;;;;;;;;;;;13.67;74.55;101913.66;1261292;23;629;-77
2022/11/27 03:22:53;;;;;;;;;;;;;;;13.66;74.50;101909.25;1262025;23;629;-78
2022/11/27 03:23:43;;;;;;;;;;;;;;;13.64;74.29;101905.81;1261252;23;774;-77
2022/11/27 03:24:34;;;;;;;;;;;;;;;13.62;74.28;101905.03;1261291;23;1001;-76
2022/11/27 03:25:24;;;;;;;;;;;;;;;13.64;74.49;101906.66;1261372;23;649;-77
2022/11/27 03:26:15;;;;;;;;;;;;;;;13.63;74.57;101901.41;1262300;23;672;-78
2022/11/27 03:27:05;;;;;;;;;;;;;;;13.62;75.01;101905.91;1261323;23;685;-76
2022/11/27 03:27:56;;;;;;;;;;;;;;;13.62;74.72;101905.03;1261392;23;676;-75
2022/11/27 03:28:46;;;;;;;;;;;;;;;13.63;74.43;101896.06;1261235;23;610;-75
2022/11/27 03:29:36;;;;;;;;;;;;;;;13.63;74.44;101893.38;1262174;23;637;-75
2022/11/27 03:30:27;;;;;;;;;;;;;;;13.63;74.33;101896.06;1261351;23;665;-75
2022/11/27 03:31:17;;;;;;;;;;;;;;;13.64;74.78;101893.28;1261256;23;692;-75
2022/11/27 03:32:08;;;;;;;;;;;;;;;13.65;74.98;101891.47;1261710;23;669;-75
2022/11/27 03:32:58;;;;;;;;;;;;;;;13.65;74.79;101886.09;1261228;23;1928;-76
2022/11/27 03:33:49;;;;;;;;;;;;;;;13.64;74.41;101897.78;1256573;23;625;-77
2022/11/27 03:34:39;;;;;;;;;;;;;;;13.64;75.02;101892.41;1255057;23;602;-76
2022/11/27 03:35:30;;;;;;;;;;;;;;;13.64;74.65;101889.75;1261276;23;629;-75
2022/11/27 03:36:21;;;;;;;;;;;;;;;13.63;74.93;101891.56;1261243;23;661;-75
2022/11/27 03:37:11;;;;;;;;;;;;;;;13.62;74.90;101889.81;1261261;23;649;-75
2022/11/27 03:38:01;;;;;;;;;;;;;;;13.62;75.02;101883.63;1261304;23;654;-75
2022/11/27 03:38:52;;;;;;;;;;;;;;;13.60;74.74;101890.91;1261280;23;657;-75
2022/11/27 03:39:43;;;;;;;;;;;;;;;13.60;74.71;101886.41;1261262;23;622;-75
2022/11/27 03:40:33;;;;;;;;;;;;;;;13.61;75.05;101881.91;1262141;23;806;-75
2022/11/27 03:41:24;;;;;;;;;;;;;;;13.59;74.49;101881.16;1261273;23;740;-75
2022/11/27 03:42:14;;;;;;;;;;;;;;;13.60;75.19;101877.50;1261354;23;692;-75
2022/11/27 03:43:05;;;;;;;;;;;;;;;13.58;75.06;101877.59;1261271;23;677;-75
2022/11/27 03:43:55;;;;;;;;;;;;;;;13.60;74.82;101874.84;1262361;23;652;-75
2022/11/27 03:44:46;;;;;;;;;;;;;;;13.60;74.28;101875.69;1262298;23;641;-75
2022/11/27 03:45:36;;;;;;;;;;;;;;;13.60;74.33;101875.69;1261976;23;962;-75
2022/11/27 03:46:27;;;;;;;;;;;;;;;13.60;74.44;101872.16;1261374;23;669;-75
2022/11/27 03:47:17;;;;;;;;;;;;;;;13.61;74.13;101868.53;1262103;23;614;-75
2022/11/27 03:48:07;;;;;;;;;;;;;;;13.61;74.51;101874.75;1262153;23;613;-75
2022/11/27 03:48:58;;;;;;;;;;;;;;;13.59;74.71;101878.47;1261251;23;650;-75
2022/11/27 03:49:48;;;;;;;;;;;;;;;13.54;74.08;101884.97;1261279;23;767;-75
2022/11/27 03:50:39;;;;;;;;;;;;;;;13.56;74.29;101892.91;1261202;23;646;-75
2022/11/27 03:51:29;;;;;;;;;;;;;;;13.58;74.95;101882.09;1261279;23;657;-76
2022/11/27 03:52:20;;;;;;;;;;;;;;;13.58;74.92;101879.41;1261262;23;661;-76
2022/11/27 03:53:10;;;;;;;;;;;;;;;13.58;74.88;101874.94;1261323;23;606;-75
2022/11/27 03:54:00;;;;;;;;;;;;;;;13.59;74.83;101873.13;1261257;23;649;-76
2022/11/27 03:54:51;;;;;;;;;;;;;;;13.59;74.11;101875.78;1261157;23;606;-76
2022/11/27 03:55:41;;;;;;;;;;;;;;;13.59;74.52;101875.78;1261313;23;680;-76
2022/11/27 03:56:32;;;;;;;;;;;;;;;13.60;74.28;101880.19;1262108;23;617;-76
2022/11/27 03:57:22;;;;;;;;;;;;;;;13.58;75.08;101868.72;1262192;23;680;-75
2022/11/27 03:58:13;;;;;;;;;;;;;;;13.59;74.86;101865.06;1262070;23;746;-76
2022/11/27 03:59:03;;;;;;;;;;;;;;;13.59;74.93;101867.75;1261345;23;609;-76
2022/11/27 03:59:53;;;;;;;;;;;;;;;13.57;74.44;101873.19;1261345;23;641;-75
2022/11/27 04:00:44;;;;;;;;;;;;;;;13.58;74.19;101869.56;1261237;23;649;-76
2022/11/27 04:01:34;;;;;;;;;;;;;;;13.59;74.53;101871.28;1262102;23;656;-76
2022/11/27 04:02:25;;;;;;;;;;;;;;;13.60;74.95;101872.16;1262161;23;617;-76
2022/11/27 04:03:15;;;;;;;;;;;;;;;13.57;74.54;101878.56;1261242;23;646;-76
2022/11/27 04:04:06;;;;;;;;;;;;;;;13.59;75.00;101881.16;1261203;23;645;-76
2022/11/27 04:04:57;;;;;;;;;;;;;;;13.57;74.50;101875.03;1261247;23;629;-76
2022/11/27 04:05:47;;;;;;;;;;;;;;;13.59;74.58;101881.16;1261515;23;602;-76
2022/11/27 04:06:37;;;;;;;;;;;;;;;13.58;74.18;101888.31;1262079;23;692;-76
2022/11/27 04:07:28;;;;;;;;;;;;;;;13.57;74.31;101883.91;1261245;23;615;-75
2022/11/27 04:08:18;;;;;;;;;;;;;;;13.54;74.54;101884.97;1261188;23;657;-76
2022/11/27 04:09:09;;;;;;;;;;;;;;;13.52;75.00;101883.31;1261307;23;606;-76
2022/11/27 04:09:59;;;;;;;;;;;;;;;13.53;75.04;101879.69;1261155;23;614;-75
2022/11/27 04:10:50;;;;;;;;;;;;;;;13.53;74.71;101885.91;1262055;23;629;-76
2022/11/27 04:11:40;;;;;;;;;;;;;;;13.53;74.29;101880.56;1261239;23;634;-75
2022/11/27 04:12:30;;;;;;;;;;;;;;;13.53;74.42;101877.88;1261381;23;677;-76
2022/11/27 04:13:21;;;;;;;;;;;;;;;13.58;74.68;101884.78;1261279;23;649;-76
2022/11/27 04:14:11;;;;;;;;;;;;;;;13.57;74.25;101886.59;1262335;23;645;-76
2022/11/27 04:15:02;;;;;;;;;;;;;;;13.58;74.26;101892.81;1261292;23;633;-76
2022/11/27 04:15:52;;;;;;;;;;;;;;;13.58;73.96;101888.31;1261653;23;932;-76
2022/11/27 04:16:42;;;;;;;;;;;;;;;13.58;74.19;101892.81;1261221;23;576;-76
2022/11/27 04:17:33;;;;;;;;;;;;;;;13.57;74.73;101885.72;1256725;23;988;-77
2022/11/27 04:18:23;;;;;;;;;;;;;;;13.54;74.89;101882.28;1255153;23;672;-78
2022/11/27 04:19:14;;;;;;;;;;;;;;;13.54;74.81;101882.28;1261228;23;665;-78
2022/11/27 04:20:04;;;;;;;;;;;;;;;13.55;74.46;101877.78;1261248;23;610;-79
2022/11/27 04:20:55;;;;;;;;;;;;;;;13.54;74.61;101886.78;1261326;23;630;-78
2022/11/27 04:21:45;;;;;;;;;;;;;;;13.55;75.13;101873.28;1261159;23;649;-78
2022/11/27 04:22:35;;;;;;;;;;;;;;;13.57;74.66;101878.56;1261341;23;657;-78
2022/11/27 04:23:26;;;;;;;;;;;;;;;13.54;74.91;101876.94;1261297;23;614;-78
2022/11/27 04:24:16;;;;;;;;;;;;;;;13.52;74.79;101889.53;1261246;23;633;-78
2022/11/27 04:25:07;;;;;;;;;;;;;;;13.53;74.20;101885.06;1261248;23;672;-79
2022/11/27 04:25:57;;;;;;;;;;;;;;;13.52;75.04;101878.84;1261215;23;606;-79
2022/11/27 04:26:47;;;;;;;;;;;;;;;13.53;74.47;101880.56;1261336;23;657;-79